sensor_id;sensor_type;location;lat;lon;timestamp;P1;durP1;ratioP1;P2;durP2;ratioP2
3718;SDS011;1875;52.492;6.860;2024-01-25T00:01:40;26.10;;;4.57;;
3718;SDS011;1875;52.492;6.860;2024-01-25T00:04:09;24.75;;;3.38;;
3718;SDS011;1875;52.492;6.860;2024-01-25T00:06:37;21.67;;;4.07;;
3718;SDS011;1875;52.492;6.860;2024-01-25T00:09:06;25.33;;;3.80;;
3718;SDS011;1875;52.492;6.860;2024-01-25T00:11:34;24.25;;;3.58;;
3718;SDS011;1875;52.492;6.860;2024-01-25T00:14:02;16.15;;;3.20;;
3718;SDS011;1875;52.492;6.860;2024-01-25T00:16:31;22.30;;;3.70;;
3718;SDS011;1875;52.492;6.860;2024-01-25T00:18:59;18.88;;;3.00;;
3718;SDS011;1875;52.492;6.860;2024-01-25T00:21:27;22.85;;;3.63;;
3718;SDS011;1875;52.492;6.860;2024-01-25T00:23:55;33.03;;;5.38;;
3718;SDS011;1875;52.492;6.860;2024-01-25T00:26:24;13.32;;;2.83;;
3718;SDS011;1875;52.492;6.860;2024-01-25T00:28:52;27.45;;;4.32;;
3718;SDS011;1875;52.492;6.860;2024-01-25T00:31:19;32.42;;;5.50;;
3718;SDS011;1875;52.492;6.860;2024-01-25T00:33:47;17.40;;;2.97;;
3718;SDS011;1875;52.492;6.860;2024-01-25T00:36:16;19.92;;;3.53;;
3718;SDS011;1875;52.492;6.860;2024-01-25T00:38:44;30.38;;;4.68;;
3718;SDS011;1875;52.492;6.860;2024-01-25T00:41:13;24.02;;;3.72;;
3718;SDS011;1875;52.492;6.860;2024-01-25T00:43:47;12.52;;;2.58;;
3718;SDS011;1875;52.492;6.860;2024-01-25T00:46:15;20.80;;;4.05;;
3718;SDS011;1875;52.492;6.860;2024-01-25T00:48:43;11.50;;;1.98;;
3718;SDS011;1875;52.492;6.860;2024-01-25T00:51:13;6.18;;;3.08;;
3718;SDS011;1875;52.492;6.860;2024-01-25T00:53:42;18.17;;;3.75;;
3718;SDS011;1875;52.492;6.860;2024-01-25T00:56:11;24.85;;;5.22;;
3718;SDS011;1875;52.492;6.860;2024-01-25T00:58:39;17.73;;;2.75;;
3718;SDS011;1875;52.492;6.860;2024-01-25T01:01:10;24.33;;;3.72;;
3718;SDS011;1875;52.492;6.860;2024-01-25T01:03:38;28.17;;;5.05;;
3718;SDS011;1875;52.492;6.860;2024-01-25T01:06:07;29.20;;;3.75;;
3718;SDS011;1875;52.492;6.860;2024-01-25T01:08:36;23.20;;;4.43;;
3718;SDS011;1875;52.492;6.860;2024-01-25T01:11:05;15.52;;;3.30;;
3718;SDS011;1875;52.492;6.860;2024-01-25T01:13:33;21.05;;;5.13;;
3718;SDS011;1875;52.492;6.860;2024-01-25T01:16:00;27.27;;;3.75;;
3718;SDS011;1875;52.492;6.860;2024-01-25T01:18:30;19.77;;;2.85;;
3718;SDS011;1875;52.492;6.860;2024-01-25T01:20:58;22.25;;;4.07;;
3718;SDS011;1875;52.492;6.860;2024-01-25T01:23:26;20.08;;;3.50;;
3718;SDS011;1875;52.492;6.860;2024-01-25T01:25:54;28.30;;;4.20;;
3718;SDS011;1875;52.492;6.860;2024-01-25T01:28:21;16.10;;;3.58;;
3718;SDS011;1875;52.492;6.860;2024-01-25T01:30:49;20.05;;;3.70;;
3718;SDS011;1875;52.492;6.860;2024-01-25T01:33:17;20.10;;;3.42;;
3718;SDS011;1875;52.492;6.860;2024-01-25T01:35:47;21.48;;;3.83;;
3718;SDS011;1875;52.492;6.860;2024-01-25T01:38:15;26.63;;;3.10;;
3718;SDS011;1875;52.492;6.860;2024-01-25T01:40:44;14.52;;;3.20;;
3718;SDS011;1875;52.492;6.860;2024-01-25T01:43:17;19.35;;;3.45;;
3718;SDS011;1875;52.492;6.860;2024-01-25T01:45:45;19.13;;;3.28;;
3718;SDS011;1875;52.492;6.860;2024-01-25T01:48:13;29.88;;;4.60;;
3718;SDS011;1875;52.492;6.860;2024-01-25T01:50:42;17.33;;;3.08;;
3718;SDS011;1875;52.492;6.860;2024-01-25T01:53:11;25.20;;;4.65;;
3718;SDS011;1875;52.492;6.860;2024-01-25T01:55:39;19.17;;;3.00;;
3718;SDS011;1875;52.492;6.860;2024-01-25T01:58:08;22.50;;;4.40;;
3718;SDS011;1875;52.492;6.860;2024-01-25T02:00:36;21.63;;;3.42;;
3718;SDS011;1875;52.492;6.860;2024-01-25T02:03:05;24.25;;;5.28;;
3718;SDS011;1875;52.492;6.860;2024-01-25T02:05:34;20.65;;;3.00;;
3718;SDS011;1875;52.492;6.860;2024-01-25T02:08:02;24.27;;;3.55;;
3718;SDS011;1875;52.492;6.860;2024-01-25T02:10:32;27.15;;;4.25;;
3718;SDS011;1875;52.492;6.860;2024-01-25T02:12:59;24.83;;;3.42;;
3718;SDS011;1875;52.492;6.860;2024-01-25T02:15:27;26.38;;;5.18;;
3718;SDS011;1875;52.492;6.860;2024-01-25T02:17:55;25.15;;;4.18;;
3718;SDS011;1875;52.492;6.860;2024-01-25T02:20:25;24.83;;;3.95;;
3718;SDS011;1875;52.492;6.860;2024-01-25T02:22:54;28.77;;;5.53;;
3718;SDS011;1875;52.492;6.860;2024-01-25T02:25:22;28.88;;;3.97;;
3718;SDS011;1875;52.492;6.860;2024-01-25T02:27:50;21.45;;;4.20;;
3718;SDS011;1875;52.492;6.860;2024-01-25T02:30:18;32.60;;;5.40;;
3718;SDS011;1875;52.492;6.860;2024-01-25T02:32:46;15.80;;;3.28;;
3718;SDS011;1875;52.492;6.860;2024-01-25T02:35:15;33.65;;;5.10;;
3718;SDS011;1875;52.492;6.860;2024-01-25T02:37:43;23.95;;;4.13;;
3718;SDS011;1875;52.492;6.860;2024-01-25T02:40:13;19.85;;;3.30;;
3718;SDS011;1875;52.492;6.860;2024-01-25T02:42:41;21.00;;;4.80;;
3718;SDS011;1875;52.492;6.860;2024-01-25T02:45:09;31.90;;;4.18;;
3718;SDS011;1875;52.492;6.860;2024-01-25T02:47:37;24.85;;;6.03;;
3718;SDS011;1875;52.492;6.860;2024-01-25T02:50:05;20.45;;;3.60;;
3718;SDS011;1875;52.492;6.860;2024-01-25T02:52:34;26.73;;;3.85;;
3718;SDS011;1875;52.492;6.860;2024-01-25T02:55:01;19.58;;;3.15;;
3718;SDS011;1875;52.492;6.860;2024-01-25T02:57:31;29.23;;;4.80;;
3718;SDS011;1875;52.492;6.860;2024-01-25T02:59:59;24.58;;;4.80;;
3718;SDS011;1875;52.492;6.860;2024-01-25T03:02:27;20.92;;;3.78;;
3718;SDS011;1875;52.492;6.860;2024-01-25T03:04:55;25.48;;;4.13;;
3718;SDS011;1875;52.492;6.860;2024-01-25T03:07:23;16.52;;;3.42;;
3718;SDS011;1875;52.492;6.860;2024-01-25T03:09:51;22.95;;;4.03;;
3718;SDS011;1875;52.492;6.860;2024-01-25T03:12:19;22.58;;;4.32;;
3718;SDS011;1875;52.492;6.860;2024-01-25T03:14:49;27.08;;;4.22;;
3718;SDS011;1875;52.492;6.860;2024-01-25T03:17:16;27.08;;;4.47;;
3718;SDS011;1875;52.492;6.860;2024-01-25T03:19:44;15.57;;;3.65;;
3718;SDS011;1875;52.492;6.860;2024-01-25T03:22:14;27.08;;;4.05;;
3718;SDS011;1875;52.492;6.860;2024-01-25T03:24:42;33.47;;;5.22;;
3718;SDS011;1875;52.492;6.860;2024-01-25T03:27:10;21.25;;;3.47;;
3718;SDS011;1875;52.492;6.860;2024-01-25T03:29:40;21.98;;;3.83;;
3718;SDS011;1875;52.492;6.860;2024-01-25T03:32:10;26.02;;;5.00;;
3718;SDS011;1875;52.492;6.860;2024-01-25T03:37:06;17.48;;;3.25;;
3718;SDS011;1875;52.492;6.860;2024-01-25T03:39:34;25.08;;;4.05;;
3718;SDS011;1875;52.492;6.860;2024-01-25T03:42:02;19.98;;;3.95;;
3718;SDS011;1875;52.492;6.860;2024-01-25T03:44:31;19.10;;;3.10;;
3718;SDS011;1875;52.492;6.860;2024-01-25T03:46:58;24.70;;;3.13;;
3718;SDS011;1875;52.492;6.860;2024-01-25T03:49:28;22.25;;;3.72;;
3718;SDS011;1875;52.492;6.860;2024-01-25T03:54:24;26.05;;;4.43;;
3718;SDS011;1875;52.492;6.860;2024-01-25T03:56:52;21.98;;;3.65;;
3718;SDS011;1875;52.492;6.860;2024-01-25T03:59:20;21.13;;;4.15;;
3718;SDS011;1875;52.492;6.860;2024-01-25T04:01:47;29.77;;;4.63;;
3718;SDS011;1875;52.492;6.860;2024-01-25T04:04:16;27.48;;;4.22;;
3718;SDS011;1875;52.492;6.860;2024-01-25T04:06:45;24.90;;;4.20;;
3718;SDS011;1875;52.492;6.860;2024-01-25T04:09:14;18.35;;;3.55;;
3718;SDS011;1875;52.492;6.860;2024-01-25T04:11:42;20.92;;;4.00;;
3718;SDS011;1875;52.492;6.860;2024-01-25T04:14:10;21.98;;;3.35;;
3718;SDS011;1875;52.492;6.860;2024-01-25T04:16:38;25.10;;;4.30;;
3718;SDS011;1875;52.492;6.860;2024-01-25T04:19:07;30.67;;;4.25;;
3718;SDS011;1875;52.492;6.860;2024-01-25T04:21:39;15.50;;;3.38;;
3718;SDS011;1875;52.492;6.860;2024-01-25T04:24:08;15.88;;;2.75;;
3718;SDS011;1875;52.492;6.860;2024-01-25T04:26:36;23.20;;;3.53;;
3718;SDS011;1875;52.492;6.860;2024-01-25T04:29:03;23.70;;;3.03;;
3718;SDS011;1875;52.492;6.860;2024-01-25T04:31:32;24.75;;;3.88;;
3718;SDS011;1875;52.492;6.860;2024-01-25T04:34:00;20.75;;;3.85;;
3718;SDS011;1875;52.492;6.860;2024-01-25T04:36:28;20.25;;;3.03;;
3718;SDS011;1875;52.492;6.860;2024-01-25T04:38:56;18.75;;;3.22;;
3718;SDS011;1875;52.492;6.860;2024-01-25T04:41:25;25.83;;;4.82;;
3718;SDS011;1875;52.492;6.860;2024-01-25T04:43:53;15.57;;;3.00;;
3718;SDS011;1875;52.492;6.860;2024-01-25T04:46:21;18.30;;;3.65;;
3718;SDS011;1875;52.492;6.860;2024-01-25T04:48:49;19.73;;;3.10;;
3718;SDS011;1875;52.492;6.860;2024-01-25T04:51:18;21.42;;;3.65;;
3718;SDS011;1875;52.492;6.860;2024-01-25T04:53:46;26.02;;;4.13;;
3718;SDS011;1875;52.492;6.860;2024-01-25T04:56:14;23.73;;;3.40;;
3718;SDS011;1875;52.492;6.860;2024-01-25T04:58:43;12.45;;;2.83;;
3718;SDS011;1875;52.492;6.860;2024-01-25T05:01:11;13.60;;;2.78;;
3718;SDS011;1875;52.492;6.860;2024-01-25T05:03:39;27.30;;;3.83;;
3718;SDS011;1875;52.492;6.860;2024-01-25T05:06:07;14.82;;;3.38;;
3718;SDS011;1875;52.492;6.860;2024-01-25T05:08:35;16.08;;;4.40;;
3718;SDS011;1875;52.492;6.860;2024-01-25T05:11:03;28.73;;;4.30;;
3718;SDS011;1875;52.492;6.860;2024-01-25T05:13:33;18.13;;;2.53;;
3718;SDS011;1875;52.492;6.860;2024-01-25T05:16:03;19.83;;;3.78;;
3718;SDS011;1875;52.492;6.860;2024-01-25T05:18:31;34.80;;;5.43;;
3718;SDS011;1875;52.492;6.860;2024-01-25T05:20:59;24.75;;;4.43;;
3718;SDS011;1875;52.492;6.860;2024-01-25T05:23:27;20.55;;;4.45;;
3718;SDS011;1875;52.492;6.860;2024-01-25T05:25:55;25.65;;;5.88;;
3718;SDS011;1875;52.492;6.860;2024-01-25T05:28:23;24.58;;;3.03;;
3718;SDS011;1875;52.492;6.860;2024-01-25T05:30:51;30.10;;;4.63;;
3718;SDS011;1875;52.492;6.860;2024-01-25T05:33:21;24.75;;;3.63;;
3718;SDS011;1875;52.492;6.860;2024-01-25T05:35:49;13.30;;;2.85;;
3718;SDS011;1875;52.492;6.860;2024-01-25T05:38:16;17.92;;;3.60;;
3718;SDS011;1875;52.492;6.860;2024-01-25T05:40:44;17.85;;;3.72;;
3718;SDS011;1875;52.492;6.860;2024-01-25T05:43:12;25.40;;;3.85;;
3718;SDS011;1875;52.492;6.860;2024-01-25T05:45:40;26.33;;;3.20;;
3718;SDS011;1875;52.492;6.860;2024-01-25T05:48:08;20.40;;;5.40;;
3718;SDS011;1875;52.492;6.860;2024-01-25T05:50:37;26.65;;;3.70;;
3718;SDS011;1875;52.492;6.860;2024-01-25T05:53:05;27.83;;;5.15;;
3718;SDS011;1875;52.492;6.860;2024-01-25T05:55:33;22.77;;;3.63;;
3718;SDS011;1875;52.492;6.860;2024-01-25T05:58:01;24.95;;;3.65;;
3718;SDS011;1875;52.492;6.860;2024-01-25T06:00:29;15.43;;;4.85;;
3718;SDS011;1875;52.492;6.860;2024-01-25T06:02:57;16.98;;;2.80;;
3718;SDS011;1875;52.492;6.860;2024-01-25T06:05:25;30.90;;;4.60;;
3718;SDS011;1875;52.492;6.860;2024-01-25T06:07:54;37.35;;;4.63;;
3718;SDS011;1875;52.492;6.860;2024-01-25T06:10:22;31.63;;;3.80;;
3718;SDS011;1875;52.492;6.860;2024-01-25T06:12:50;17.35;;;3.60;;
3718;SDS011;1875;52.492;6.860;2024-01-25T06:15:18;16.15;;;2.53;;
3718;SDS011;1875;52.492;6.860;2024-01-25T06:17:46;13.63;;;3.35;;
3718;SDS011;1875;52.492;6.860;2024-01-25T06:20:14;18.33;;;3.67;;
3718;SDS011;1875;52.492;6.860;2024-01-25T06:22:42;15.57;;;4.10;;
3718;SDS011;1875;52.492;6.860;2024-01-25T06:25:12;21.23;;;3.45;;
3718;SDS011;1875;52.492;6.860;2024-01-25T06:27:39;23.73;;;3.92;;
3718;SDS011;1875;52.492;6.860;2024-01-25T06:30:08;15.38;;;3.97;;
3718;SDS011;1875;52.492;6.860;2024-01-25T06:32:36;25.02;;;3.75;;
3718;SDS011;1875;52.492;6.860;2024-01-25T06:35:05;26.05;;;4.00;;
3718;SDS011;1875;52.492;6.860;2024-01-25T06:37:34;12.85;;;2.13;;
3718;SDS011;1875;52.492;6.860;2024-01-25T06:40:02;23.02;;;4.43;;
3718;SDS011;1875;52.492;6.860;2024-01-25T06:42:32;22.55;;;4.80;;
3718;SDS011;1875;52.492;6.860;2024-01-25T06:45:00;24.52;;;3.40;;
3718;SDS011;1875;52.492;6.860;2024-01-25T06:47:29;23.30;;;4.03;;
3718;SDS011;1875;52.492;6.860;2024-01-25T06:49:57;23.80;;;3.45;;
3718;SDS011;1875;52.492;6.860;2024-01-25T06:52:25;21.02;;;3.45;;
3718;SDS011;1875;52.492;6.860;2024-01-25T06:54:55;20.80;;;3.45;;
3718;SDS011;1875;52.492;6.860;2024-01-25T06:57:23;27.08;;;3.13;;
3718;SDS011;1875;52.492;6.860;2024-01-25T06:59:52;19.80;;;3.15;;
3718;SDS011;1875;52.492;6.860;2024-01-25T07:02:20;23.77;;;3.85;;
3718;SDS011;1875;52.492;6.860;2024-01-25T07:04:49;22.25;;;4.20;;
3718;SDS011;1875;52.492;6.860;2024-01-25T07:07:20;18.95;;;3.63;;
3718;SDS011;1875;52.492;6.860;2024-01-25T07:09:47;29.52;;;4.50;;
3718;SDS011;1875;52.492;6.860;2024-01-25T07:12:15;20.02;;;3.42;;
3718;SDS011;1875;52.492;6.860;2024-01-25T07:14:43;14.48;;;2.90;;
3718;SDS011;1875;52.492;6.860;2024-01-25T07:17:12;30.33;;;3.53;;
3718;SDS011;1875;52.492;6.860;2024-01-25T07:19:40;19.52;;;3.03;;
3718;SDS011;1875;52.492;6.860;2024-01-25T07:22:09;30.25;;;5.70;;
3718;SDS011;1875;52.492;6.860;2024-01-25T07:24:38;22.15;;;3.78;;
3718;SDS011;1875;52.492;6.860;2024-01-25T07:27:06;25.83;;;4.45;;
3718;SDS011;1875;52.492;6.860;2024-01-25T07:29:34;31.52;;;4.15;;
3718;SDS011;1875;52.492;6.860;2024-01-25T07:32:01;18.40;;;3.75;;
3718;SDS011;1875;52.492;6.860;2024-01-25T07:34:31;14.65;;;4.03;;
3718;SDS011;1875;52.492;6.860;2024-01-25T07:36:59;20.83;;;4.05;;
3718;SDS011;1875;52.492;6.860;2024-01-25T07:39:27;16.58;;;3.40;;
3718;SDS011;1875;52.492;6.860;2024-01-25T07:41:55;17.40;;;3.92;;
3718;SDS011;1875;52.492;6.860;2024-01-25T07:44:22;32.97;;;5.43;;
3718;SDS011;1875;52.492;6.860;2024-01-25T07:46:50;34.72;;;4.68;;
3718;SDS011;1875;52.492;6.860;2024-01-25T07:49:18;20.05;;;3.22;;
3718;SDS011;1875;52.492;6.860;2024-01-25T07:51:47;27.13;;;4.55;;
3718;SDS011;1875;52.492;6.860;2024-01-25T07:54:16;21.13;;;4.28;;
3718;SDS011;1875;52.492;6.860;2024-01-25T07:56:43;30.80;;;4.68;;
3718;SDS011;1875;52.492;6.860;2024-01-25T07:59:11;21.90;;;3.90;;
3718;SDS011;1875;52.492;6.860;2024-01-25T08:01:39;24.92;;;4.68;;
3718;SDS011;1875;52.492;6.860;2024-01-25T08:04:07;22.05;;;5.28;;
3718;SDS011;1875;52.492;6.860;2024-01-25T08:06:35;20.80;;;4.07;;
3718;SDS011;1875;52.492;6.860;2024-01-25T08:09:05;32.35;;;4.55;;
3718;SDS011;1875;52.492;6.860;2024-01-25T08:11:33;22.10;;;3.90;;
3718;SDS011;1875;52.492;6.860;2024-01-25T08:14:00;23.55;;;4.20;;
3718;SDS011;1875;52.492;6.860;2024-01-25T08:16:30;16.85;;;4.00;;
3718;SDS011;1875;52.492;6.860;2024-01-25T08:18:58;21.40;;;3.30;;
3718;SDS011;1875;52.492;6.860;2024-01-25T08:21:26;26.20;;;5.50;;
3718;SDS011;1875;52.492;6.860;2024-01-25T08:23:54;26.27;;;4.30;;
3718;SDS011;1875;52.492;6.860;2024-01-25T08:26:23;22.58;;;5.28;;
3718;SDS011;1875;52.492;6.860;2024-01-25T08:28:51;13.50;;;3.38;;
3718;SDS011;1875;52.492;6.860;2024-01-25T08:31:19;23.27;;;4.68;;
3718;SDS011;1875;52.492;6.860;2024-01-25T08:33:47;24.38;;;4.00;;
3718;SDS011;1875;52.492;6.860;2024-01-25T08:36:16;36.45;;;6.70;;
3718;SDS011;1875;52.492;6.860;2024-01-25T08:38:45;25.90;;;4.82;;
3718;SDS011;1875;52.492;6.860;2024-01-25T08:41:13;30.00;;;5.50;;
3718;SDS011;1875;52.492;6.860;2024-01-25T08:43:43;33.97;;;5.97;;
3718;SDS011;1875;52.492;6.860;2024-01-25T08:46:12;20.52;;;4.80;;
3718;SDS011;1875;52.492;6.860;2024-01-25T08:48:41;21.00;;;3.80;;
3718;SDS011;1875;52.492;6.860;2024-01-25T08:51:09;23.15;;;4.63;;
3718;SDS011;1875;52.492;6.860;2024-01-25T08:53:37;25.63;;;5.40;;
3718;SDS011;1875;52.492;6.860;2024-01-25T08:56:05;30.95;;;4.70;;
3718;SDS011;1875;52.492;6.860;2024-01-25T08:58:33;18.02;;;4.80;;
3718;SDS011;1875;52.492;6.860;2024-01-25T09:01:03;26.67;;;4.88;;
3718;SDS011;1875;52.492;6.860;2024-01-25T09:03:31;25.40;;;4.93;;
3718;SDS011;1875;52.492;6.860;2024-01-25T09:05:59;25.40;;;4.22;;
3718;SDS011;1875;52.492;6.860;2024-01-25T09:08:33;26.88;;;5.30;;
3718;SDS011;1875;52.492;6.860;2024-01-25T09:11:01;38.05;;;5.00;;
3718;SDS011;1875;52.492;6.860;2024-01-25T09:13:29;19.90;;;5.28;;
3718;SDS011;1875;52.492;6.860;2024-01-25T09:15:59;31.70;;;5.10;;
3718;SDS011;1875;52.492;6.860;2024-01-25T09:18:28;41.97;;;7.15;;
3718;SDS011;1875;52.492;6.860;2024-01-25T09:20:56;35.67;;;5.85;;
3718;SDS011;1875;52.492;6.860;2024-01-25T09:23:24;41.80;;;7.75;;
3718;SDS011;1875;52.492;6.860;2024-01-25T09:25:51;26.52;;;4.85;;
3718;SDS011;1875;52.492;6.860;2024-01-25T09:28:19;19.52;;;4.95;;
3718;SDS011;1875;52.492;6.860;2024-01-25T09:30:47;27.67;;;6.47;;
3718;SDS011;1875;52.492;6.860;2024-01-25T09:33:18;19.23;;;5.00;;
3718;SDS011;1875;52.492;6.860;2024-01-25T09:35:48;25.48;;;5.72;;
3718;SDS011;1875;52.492;6.860;2024-01-25T09:38:17;30.20;;;5.65;;
3718;SDS011;1875;52.492;6.860;2024-01-25T09:40:45;28.98;;;6.10;;
3718;SDS011;1875;52.492;6.860;2024-01-25T09:43:14;34.30;;;7.20;;
3718;SDS011;1875;52.492;6.860;2024-01-25T09:45:43;27.92;;;5.47;;
3718;SDS011;1875;52.492;6.860;2024-01-25T09:48:12;29.00;;;7.43;;
3718;SDS011;1875;52.492;6.860;2024-01-25T09:50:41;34.75;;;6.82;;
3718;SDS011;1875;52.492;6.860;2024-01-25T09:53:12;28.98;;;5.50;;
3718;SDS011;1875;52.492;6.860;2024-01-25T09:55:42;24.07;;;5.40;;
3718;SDS011;1875;52.492;6.860;2024-01-25T09:58:11;25.92;;;5.60;;
3718;SDS011;1875;52.492;6.860;2024-01-25T10:00:40;35.72;;;7.22;;
3718;SDS011;1875;52.492;6.860;2024-01-25T10:03:09;28.95;;;5.38;;
3718;SDS011;1875;52.492;6.860;2024-01-25T10:05:37;31.10;;;5.22;;
3718;SDS011;1875;52.492;6.860;2024-01-25T10:08:11;27.55;;;4.68;;
3718;SDS011;1875;52.492;6.860;2024-01-25T10:13:11;19.48;;;4.22;;
3718;SDS011;1875;52.492;6.860;2024-01-25T10:15:40;23.67;;;5.50;;
3718;SDS011;1875;52.492;6.860;2024-01-25T10:18:10;27.80;;;5.55;;
3718;SDS011;1875;52.492;6.860;2024-01-25T10:20:54;25.92;;;5.60;;
3718;SDS011;1875;52.492;6.860;2024-01-25T10:23:24;26.45;;;6.63;;
3718;SDS011;1875;52.492;6.860;2024-01-25T10:25:53;36.92;;;6.57;;
3718;SDS011;1875;52.492;6.860;2024-01-25T10:28:23;32.70;;;6.10;;
3718;SDS011;1875;52.492;6.860;2024-01-25T10:30:55;29.75;;;5.55;;
3718;SDS011;1875;52.492;6.860;2024-01-25T10:33:23;24.85;;;6.35;;
3718;SDS011;1875;52.492;6.860;2024-01-25T10:35:52;27.65;;;6.63;;
3718;SDS011;1875;52.492;6.860;2024-01-25T10:38:21;30.27;;;6.85;;
3718;SDS011;1875;52.492;6.860;2024-01-25T10:40:51;24.95;;;5.95;;
3718;SDS011;1875;52.492;6.860;2024-01-25T10:43:20;21.13;;;6.82;;
3718;SDS011;1875;52.492;6.860;2024-01-25T10:45:48;30.25;;;5.93;;
3718;SDS011;1875;52.492;6.860;2024-01-25T10:48:22;26.35;;;7.28;;
3718;SDS011;1875;52.492;6.860;2024-01-25T10:50:49;36.90;;;9.32;;
3718;SDS011;1875;52.492;6.860;2024-01-25T10:53:17;22.48;;;5.82;;
3718;SDS011;1875;52.492;6.860;2024-01-25T10:55:45;28.55;;;6.78;;
3718;SDS011;1875;52.492;6.860;2024-01-25T10:58:15;33.97;;;7.50;;
3718;SDS011;1875;52.492;6.860;2024-01-25T11:00:49;42.13;;;7.82;;
3718;SDS011;1875;52.492;6.860;2024-01-25T11:03:18;18.98;;;5.60;;
3718;SDS011;1875;52.492;6.860;2024-01-25T11:05:46;25.80;;;7.40;;
3718;SDS011;1875;52.492;6.860;2024-01-25T11:08:19;27.80;;;6.60;;
3718;SDS011;1875;52.492;6.860;2024-01-25T11:10:48;31.05;;;5.95;;
3718;SDS011;1875;52.492;6.860;2024-01-25T11:13:24;37.55;;;6.68;;
3718;SDS011;1875;52.492;6.860;2024-01-25T11:15:54;30.98;;;7.05;;
3718;SDS011;1875;52.492;6.860;2024-01-25T11:18:24;31.10;;;8.52;;
3718;SDS011;1875;52.492;6.860;2024-01-25T11:20:52;40.00;;;8.23;;
3718;SDS011;1875;52.492;6.860;2024-01-25T11:23:21;32.88;;;7.07;;
3718;SDS011;1875;52.492;6.860;2024-01-25T11:25:49;28.35;;;6.95;;
3718;SDS011;1875;52.492;6.860;2024-01-25T11:28:17;32.00;;;6.05;;
3718;SDS011;1875;52.492;6.860;2024-01-25T11:30:47;39.90;;;7.40;;
3718;SDS011;1875;52.492;6.860;2024-01-25T11:35:43;26.15;;;6.38;;
3718;SDS011;1875;52.492;6.860;2024-01-25T11:38:21;22.45;;;6.43;;
3718;SDS011;1875;52.492;6.860;2024-01-25T11:40:49;26.70;;;6.20;;
3718;SDS011;1875;52.492;6.860;2024-01-25T11:43:17;39.85;;;6.47;;
3718;SDS011;1875;52.492;6.860;2024-01-25T11:45:46;19.30;;;5.05;;
3718;SDS011;1875;52.492;6.860;2024-01-25T11:48:14;27.65;;;6.10;;
3718;SDS011;1875;52.492;6.860;2024-01-25T11:50:42;27.50;;;8.38;;
3718;SDS011;1875;52.492;6.860;2024-01-25T11:53:11;29.00;;;6.95;;
3718;SDS011;1875;52.492;6.860;2024-01-25T11:55:39;28.75;;;7.15;;
3718;SDS011;1875;52.492;6.860;2024-01-25T11:58:07;23.38;;;6.20;;
3718;SDS011;1875;52.492;6.860;2024-01-25T12:00:35;16.77;;;4.75;;
3718;SDS011;1875;52.492;6.860;2024-01-25T12:03:05;28.45;;;6.20;;
3718;SDS011;1875;52.492;6.860;2024-01-25T12:05:33;24.42;;;6.13;;
3718;SDS011;1875;52.492;6.860;2024-01-25T12:08:07;26.92;;;6.90;;
3718;SDS011;1875;52.492;6.860;2024-01-25T12:10:36;25.50;;;7.35;;
3718;SDS011;1875;52.492;6.860;2024-01-25T12:13:04;28.42;;;6.57;;
3718;SDS011;1875;52.492;6.860;2024-01-25T12:15:34;22.70;;;6.45;;
3718;SDS011;1875;52.492;6.860;2024-01-25T12:18:02;29.98;;;6.97;;
3718;SDS011;1875;52.492;6.860;2024-01-25T12:20:35;26.88;;;6.43;;
3718;SDS011;1875;52.492;6.860;2024-01-25T12:23:03;28.48;;;5.20;;
3718;SDS011;1875;52.492;6.860;2024-01-25T12:25:32;31.33;;;5.63;;
3718;SDS011;1875;52.492;6.860;2024-01-25T12:28:07;33.70;;;6.38;;
3718;SDS011;1875;52.492;6.860;2024-01-25T12:30:34;28.33;;;5.55;;
3718;SDS011;1875;52.492;6.860;2024-01-25T12:33:03;26.95;;;5.32;;
3718;SDS011;1875;52.492;6.860;2024-01-25T12:35:32;21.90;;;4.97;;
3718;SDS011;1875;52.492;6.860;2024-01-25T12:38:01;17.80;;;4.90;;
3718;SDS011;1875;52.492;6.860;2024-01-25T12:40:29;24.42;;;5.30;;
3718;SDS011;1875;52.492;6.860;2024-01-25T12:42:57;24.85;;;5.50;;
3718;SDS011;1875;52.492;6.860;2024-01-25T12:45:25;27.90;;;6.30;;
3718;SDS011;1875;52.492;6.860;2024-01-25T12:47:52;29.02;;;5.57;;
3718;SDS011;1875;52.492;6.860;2024-01-25T12:50:20;22.98;;;5.30;;
3718;SDS011;1875;52.492;6.860;2024-01-25T12:52:50;21.17;;;5.68;;
3718;SDS011;1875;52.492;6.860;2024-01-25T12:55:18;20.17;;;6.60;;
3718;SDS011;1875;52.492;6.860;2024-01-25T12:57:46;28.02;;;5.32;;
3718;SDS011;1875;52.492;6.860;2024-01-25T13:00:14;14.38;;;5.57;;
3718;SDS011;1875;52.492;6.860;2024-01-25T13:02:43;18.75;;;4.32;;
3718;SDS011;1875;52.492;6.860;2024-01-25T13:05:11;19.83;;;3.80;;
3718;SDS011;1875;52.492;6.860;2024-01-25T13:07:39;22.20;;;5.85;;
3718;SDS011;1875;52.492;6.860;2024-01-25T13:10:09;21.08;;;4.63;;
3718;SDS011;1875;52.492;6.860;2024-01-25T13:12:37;25.70;;;4.22;;
3718;SDS011;1875;52.492;6.860;2024-01-25T13:15:06;23.25;;;3.45;;
3718;SDS011;1875;52.492;6.860;2024-01-25T13:17:34;21.20;;;4.25;;
3718;SDS011;1875;52.492;6.860;2024-01-25T13:20:03;25.25;;;3.70;;
3718;SDS011;1875;52.492;6.860;2024-01-25T13:22:32;16.58;;;4.07;;
3718;SDS011;1875;52.492;6.860;2024-01-25T13:25:00;22.85;;;4.80;;
3718;SDS011;1875;52.492;6.860;2024-01-25T13:27:30;22.67;;;5.10;;
3718;SDS011;1875;52.492;6.860;2024-01-25T13:29:58;18.52;;;4.13;;
3718;SDS011;1875;52.492;6.860;2024-01-25T13:32:26;25.33;;;4.38;;
3718;SDS011;1875;52.492;6.860;2024-01-25T13:34:54;28.25;;;4.43;;
3718;SDS011;1875;52.492;6.860;2024-01-25T13:37:22;18.48;;;4.43;;
3718;SDS011;1875;52.492;6.860;2024-01-25T13:39:50;30.45;;;4.55;;
3718;SDS011;1875;52.492;6.860;2024-01-25T13:42:18;20.95;;;3.60;;
3718;SDS011;1875;52.492;6.860;2024-01-25T13:44:47;21.70;;;3.83;;
3718;SDS011;1875;52.492;6.860;2024-01-25T13:47:15;19.13;;;4.13;;
3718;SDS011;1875;52.492;6.860;2024-01-25T13:49:43;15.93;;;4.35;;
3718;SDS011;1875;52.492;6.860;2024-01-25T13:52:16;23.63;;;4.75;;
3718;SDS011;1875;52.492;6.860;2024-01-25T13:56:19;27.80;;;4.97;;
3718;SDS011;1875;52.492;6.860;2024-01-25T13:58:47;23.88;;;4.32;;
3718;SDS011;1875;52.492;6.860;2024-01-25T14:01:15;18.25;;;3.38;;
3718;SDS011;1875;52.492;6.860;2024-01-25T14:03:43;15.13;;;3.67;;
3718;SDS011;1875;52.492;6.860;2024-01-25T14:06:11;14.15;;;3.80;;
3718;SDS011;1875;52.492;6.860;2024-01-25T14:08:39;19.25;;;5.45;;
3718;SDS011;1875;52.492;6.860;2024-01-25T14:11:08;22.98;;;5.00;;
3718;SDS011;1875;52.492;6.860;2024-01-25T14:13:38;16.25;;;4.40;;
3718;SDS011;1875;52.492;6.860;2024-01-25T14:16:06;12.45;;;3.15;;
3718;SDS011;1875;52.492;6.860;2024-01-25T14:18:35;18.67;;;4.47;;
3718;SDS011;1875;52.492;6.860;2024-01-25T14:21:04;19.02;;;4.68;;
3718;SDS011;1875;52.492;6.860;2024-01-25T14:23:32;19.75;;;3.85;;
3718;SDS011;1875;52.492;6.860;2024-01-25T14:26:03;15.80;;;3.92;;
3718;SDS011;1875;52.492;6.860;2024-01-25T14:28:31;19.27;;;4.22;;
3718;SDS011;1875;52.492;6.860;2024-01-25T14:31:01;17.35;;;4.07;;
3718;SDS011;1875;52.492;6.860;2024-01-25T14:35:56;18.63;;;4.32;;
3718;SDS011;1875;52.492;6.860;2024-01-25T14:38:24;14.75;;;3.50;;
3718;SDS011;1875;52.492;6.860;2024-01-25T14:40:52;18.48;;;4.85;;
3718;SDS011;1875;52.492;6.860;2024-01-25T14:43:26;17.27;;;4.10;;
3718;SDS011;1875;52.492;6.860;2024-01-25T14:45:54;28.73;;;5.60;;
3718;SDS011;1875;52.492;6.860;2024-01-25T14:48:23;18.20;;;4.57;;
3718;SDS011;1875;52.492;6.860;2024-01-25T14:50:51;26.73;;;4.95;;
3718;SDS011;1875;52.492;6.860;2024-01-25T14:53:19;17.73;;;4.63;;
3718;SDS011;1875;52.492;6.860;2024-01-25T14:55:47;17.98;;;4.68;;
3718;SDS011;1875;52.492;6.860;2024-01-25T14:58:15;23.55;;;5.57;;
3718;SDS011;1875;52.492;6.860;2024-01-25T15:00:48;20.15;;;4.90;;
3718;SDS011;1875;52.492;6.860;2024-01-25T15:03:17;26.67;;;5.68;;
3718;SDS011;1875;52.492;6.860;2024-01-25T15:05:47;14.15;;;4.70;;
3718;SDS011;1875;52.492;6.860;2024-01-25T15:08:15;18.13;;;4.55;;
3718;SDS011;1875;52.492;6.860;2024-01-25T15:10:43;26.73;;;5.32;;
3718;SDS011;1875;52.492;6.860;2024-01-25T15:13:10;25.05;;;5.00;;
3718;SDS011;1875;52.492;6.860;2024-01-25T15:15:38;16.05;;;5.72;;
3718;SDS011;1875;52.492;6.860;2024-01-25T15:18:09;24.70;;;4.38;;
3718;SDS011;1875;52.492;6.860;2024-01-25T15:20:36;21.23;;;4.68;;
3718;SDS011;1875;52.492;6.860;2024-01-25T15:23:06;22.83;;;4.13;;